KSUS/SUS METAR and TAF weather

Enter ICAO airport designator
Station Type Date Time Source
KSUS METAR 2022/01/23 11:54 UTC NOAA

KSUS 231154Z 24013G20KT 10SM BKN100 04/M07 A2994 RMK AO2 PK WND 24026/1108 SLP146 T00391072 10039 20017 56015


Station Type Date Time Source
KSUS Decoded METAR 2022/01/23 11:54 UTC NOAA

SPIRIT OF ST. LOUIS AIRPORT , MO, United States (KSUS) 38-39N 090-39W 141M
Jan 23, 2022 - 06:54 AM EST / 2022.01.23 1154 UTC
Wind: from the WSW (240 degrees) at 15 MPH (13 KT) gusting to 23 MPH (20 KT):0
Visibility: 10 mile(s):0
Sky conditions: mostly cloudy
Temperature: 39.0 F (3.9 C)
Dew Point: 19.0 F (-7.2 C)
Relative Humidity: 44%
Pressure (altimeter): 29.94 in. Hg (1013 hPa)
Pressure tendency: 0.04 inches (1.5 hPa) lower than three hours ago
ob: KSUS 231154Z 24013G20KT 10SM BKN100 04/M07 A2994 RMK AO2 PK WND 24026/1108 SLP146 T00391072 10039 20017 56015
cycle: 12

Station Type Date Time Source
KSUS TAF 2022/01/23 12:28 UTC NOAA

TAF KSUS 231126Z 2312/2412 25011G21KT P6SM BKN090
FM231500 31012G22KT P6SM BKN035
TEMPO 2315/2318 BKN030
FM232000 33010KT P6SM SCT040 SCT250
FM240000 VRB03KT P6SM SCT150
FM240600 18006KT P6SM BKN070

Example: see airport list